Lexington, Missouri
Current Conditions -  °F | °C
As of 10:35 AM on Friday 21 Nov 2014 (Local Time) from KGPH Reporting Station
Overcast Overcast  
Wind Chill: -4°   Ceiling: 1800
Heat Index:   Visibility: 10mi
Dew Point: -6°   Wind: 8mph
Humidity: 64%   Direction: 130°SE
Pressure: 30.25"   Gusts: 12mph
Location:  39.18°N, 93.88°W
Report Text: KGPH 211635Z AUTO 13007G10KT 10SM OVC018 00/M06 A3025 RMK AO2
Loading
Personal Weather Stations






























Interactive Weather Map New forecast layout! Learn more

10-Day Weather Forecast

Advertisements
Track Severe Weather on mobile